Time;durP1;ratioP1;P1;durP2;ratioP2;P2;SDS_P1;SDS_P2;PMS_P1;PMS_P2;Temp;Humidity;BMP_temperature;BMP_pressure;BME280_temperature;BME280_humidity;BME280_pressure;Samples;Min_cycle;Max_cycle;Signal;HPM_P1;HPM_P2
2023/10/17 00:01:11;;;;;;;10.02;5.50;;;5.70;99.90;;;;;;5029729;28;20104;-65
2023/10/17 00:03:37;;;;;;;9.32;4.13;;;5.70;99.90;;;;;;5028194;28;20029;-65
2023/10/17 00:06:06;;;;;;;8.73;4.30;;;5.70;99.90;;;;;;5031125;28;20021;-65
2023/10/17 00:08:33;;;;;;;9.18;4.18;;;5.70;99.90;;;;;;5028758;28;20026;-65
2023/10/17 00:11:06;;;;;;;8.00;3.67;;;5.60;99.90;;;;;;5040817;28;20438;-65
2023/10/17 00:13:38;;;;;;;7.82;4.38;;;5.60;99.90;;;;;;5026968;28;20041;-65
2023/10/17 00:16:12;;;;;;;13.00;5.38;;;5.60;99.90;;;;;;5033080;28;20057;-64
2023/10/17 00:18:38;;;;;;;11.05;4.68;;;5.60;99.90;;;;;;5031992;28;20056;-65
2023/10/17 00:21:22;;;;;;;6.00;4.13;;;5.60;99.90;;;;;;5027206;28;20399;-65
2023/10/17 00:23:50;;;;;;;9.85;3.63;;;5.50;99.90;;;;;;5033089;28;20056;-65
2023/10/17 00:26:18;;;;;;;7.45;4.53;;;5.50;99.90;;;;;;5031386;28;20037;-66
2023/10/17 00:28:49;;;;;;;10.57;4.45;;;5.50;99.90;;;;;;5031439;28;20053;-65
2023/10/17 00:31:14;;;;;;;6.40;4.15;;;5.50;99.90;;;;;;5028215;28;20022;-65
2023/10/17 00:33:41;;;;;;;10.50;4.05;;;5.40;99.90;;;;;;5029858;28;20040;-65
2023/10/17 00:36:14;;;;;;;8.43;4.25;;;5.30;99.90;;;;;;5026808;28;20037;-65
2023/10/17 00:38:43;;;;;;;8.07;4.40;;;5.20;99.90;;;;;;5028010;28;20017;-66
2023/10/17 00:41:10;;;;;;;19.52;5.10;;;5.30;99.90;;;;;;5031762;28;20395;-64
2023/10/17 00:43:37;;;;;;;7.40;3.92;;;5.30;99.90;;;;;;5049700;28;20036;-65
2023/10/17 00:46:07;;;;;;;8.13;4.13;;;5.30;99.90;;;;;;5028360;28;20033;-66
2023/10/17 00:48:34;;;;;;;7.65;4.57;;;5.20;99.90;;;;;;5032548;28;20021;-66
2023/10/17 00:51:09;;;;;;;10.52;5.28;;;5.20;99.90;;;;;;5033654;28;20026;-66
2023/10/17 00:53:40;;;;;;;9.90;4.70;;;5.20;99.90;;;;;;5031252;28;20057;-68
2023/10/17 00:56:07;;;;;;;13.35;4.72;;;5.10;99.90;;;;;;5028726;28;20025;-66
2023/10/17 00:58:34;;;;;;;8.13;4.32;;;5.20;99.90;;;;;;5029453;28;20020;-70
2023/10/17 01:03:43;;;;;;;9.95;4.57;;;5.10;99.90;;;;;;5029734;28;20053;-66
2023/10/17 01:09:08;;;;;;;9.07;3.97;;;5.10;99.90;;;;;;5026918;28;20060;-64
2023/10/17 01:11:38;;;;;;;9.50;4.22;;;5.00;99.90;;;;;;5030910;28;20087;-64
2023/10/17 01:14:05;;;;;;;7.47;4.35;;;5.00;99.90;;;;;;5026786;28;20029;-64
2023/10/17 01:16:34;;;;;;;7.95;4.22;;;4.90;99.90;;;;;;5028486;28;20488;-66
2023/10/17 01:19:04;;;;;;;13.32;5.22;;;4.90;99.90;;;;;;5051559;28;20066;-65
2023/10/17 01:21:30;;;;;;;11.88;5.20;;;4.90;99.90;;;;;;5032505;28;20029;-65
2023/10/17 01:23:57;;;;;;;11.93;5.20;;;4.90;99.90;;;;;;5036062;28;20512;-65
2023/10/17 01:26:28;;;;;;;9.07;4.60;;;5.00;99.90;;;;;;5029826;28;20052;-65
2023/10/17 01:28:54;;;;;;;8.82;5.07;;;5.00;99.90;;;;;;5033181;28;20033;-65
2023/10/17 01:31:23;;;;;;;10.10;4.70;;;5.00;99.90;;;;;;5029100;28;20082;-65
2023/10/17 01:33:51;;;;;;;8.48;4.57;;;5.00;99.90;;;;;;5032545;28;20033;-65
2023/10/17 01:36:17;;;;;;;6.90;4.45;;;5.00;99.90;;;;;;5031768;28;20021;-65
2023/10/17 01:38:46;;;;;;;12.73;4.63;;;5.00;99.90;;;;;;5030876;28;20041;-65
2023/10/17 01:41:15;;;;;;;7.25;4.28;;;5.10;99.90;;;;;;5023430;28;20078;-66
2023/10/17 01:43:41;;;;;;;10.43;5.20;;;5.10;99.90;;;;;;5031053;28;20033;-66
2023/10/17 01:46:11;;;;;;;11.35;4.70;;;5.20;99.90;;;;;;5030248;28;20087;-66
2023/10/17 01:48:37;;;;;;;8.27;5.13;;;5.20;99.90;;;;;;5028854;28;21443;-66
2023/10/17 01:51:06;;;;;;;9.68;4.63;;;5.20;99.90;;;;;;5031362;28;20029;-66
2023/10/17 01:53:33;;;;;;;8.20;4.45;;;5.30;99.90;;;;;;5032481;28;20029;-66
2023/10/17 01:56:14;;;;;;;7.70;4.72;;;5.30;99.90;;;;;;5032166;28;20033;-66
2023/10/17 01:58:48;;;;;;;9.38;4.70;;;5.30;99.90;;;;;;5031328;28;20025;-66
2023/10/17 02:01:18;;;;;;;7.60;3.83;;;5.40;99.90;;;;;;5031284;28;20375;-67
2023/10/17 02:03:46;;;;;;;10.52;4.78;;;5.40;99.90;;;;;;5030900;28;20044;-67
2023/10/17 02:06:16;;;;;;;7.07;4.38;;;5.40;99.90;;;;;;5025444;28;20029;-66
2023/10/17 02:08:44;;;;;;;7.75;4.13;;;5.40;99.90;;;;;;5036667;28;20658;-66
2023/10/17 02:14:09;;;;;;;8.18;4.18;;;5.40;99.90;;;;;;5033909;28;20091;-69
2023/10/17 02:16:35;;;;;;;7.13;4.35;;;5.40;99.90;;;;;;5028254;28;20032;-65
2023/10/17 02:19:07;;;;;;;9.52;4.20;;;5.40;99.90;;;;;;5028915;28;20140;-66
2023/10/17 02:21:33;;;;;;;7.82;4.03;;;5.40;99.90;;;;;;5031728;28;20029;-66
2023/10/17 02:24:01;;;;;;;10.93;4.43;;;5.40;99.90;;;;;;5026777;28;20483;-66
2023/10/17 02:26:29;;;;;;;5.55;3.72;;;5.40;99.90;;;;;;5028589;28;20026;-66
2023/10/17 02:29:05;;;;;;;8.52;4.32;;;5.40;99.90;;;;;;5037266;28;20025;-66
2023/10/17 02:31:32;;;;;;;8.10;4.22;;;5.40;99.90;;;;;;5032260;28;20113;-66
2023/10/17 02:33:58;;;;;;;6.88;3.72;;;5.40;99.90;;;;;;5030290;28;20036;-66
2023/10/17 02:36:24;;;;;;;6.05;3.67;;;5.40;99.90;;;;;;5034038;28;20036;-66
2023/10/17 02:38:50;;;;;;;10.93;4.38;;;5.40;99.90;;;;;;5032944;28;20065;-66
2023/10/17 02:41:19;;;;;;;6.55;4.03;;;5.40;99.90;;;;;;5027933;28;20013;-66
2023/10/17 02:43:46;;;;;;;9.48;4.13;;;5.40;99.90;;;;;;5032756;28;20053;-66
2023/10/17 02:46:14;;;;;;;8.98;4.05;;;5.40;99.90;;;;;;5030065;28;20112;-69
2023/10/17 02:48:40;;;;;;;7.32;3.90;;;5.40;99.90;;;;;;5030263;28;20028;-65
2023/10/17 02:53:56;;;;;;;10.05;4.22;;;5.40;99.90;;;;;;5036954;28;20025;-66
2023/10/17 02:56:22;;;;;;;;;;;5.40;99.90;;;;;;5029387;28;20025;-65
2023/10/17 03:01:30;;;;;;;6.47;3.70;;;5.30;99.90;;;;;;5033163;28;20021;-66
2023/10/17 03:03:56;;;;;;;8.40;4.03;;;5.30;99.90;;;;;;5032268;28;20044;-66
2023/10/17 03:06:22;;;;;;;5.13;3.88;;;5.30;99.90;;;;;;5037936;28;20071;-66
2023/10/17 03:08:51;;;;;;;5.95;3.92;;;5.30;99.90;;;;;;5029706;28;20436;-66
2023/10/17 03:11:26;;;;;;;10.15;4.28;;;5.30;99.90;;;;;;5027234;28;20087;-66
2023/10/17 03:13:52;;;;;;;8.23;4.40;;;5.30;99.90;;;;;;5027250;28;20025;-66
2023/10/17 03:16:25;;;;;;;6.82;3.35;;;5.30;99.90;;;;;;5034135;28;20108;-65
2023/10/17 03:18:50;;;;;;;8.80;4.47;;;5.30;99.90;;;;;;5024105;28;20112;-66
2023/10/17 03:21:29;;;;;;;8.70;4.47;;;5.30;99.90;;;;;;5033981;28;20370;-68
2023/10/17 03:24:00;;;;;;;8.40;4.40;;;5.30;99.90;;;;;;5032016;28;20056;-66
2023/10/17 03:26:26;;;;;;;7.25;4.15;;;5.30;99.90;;;;;;5029640;28;20108;-66
2023/10/17 03:28:51;;;;;;;6.30;4.00;;;5.40;99.90;;;;;;5029188;28;20498;-66
2023/10/17 03:31:20;;;;;;;10.00;3.72;;;5.40;99.90;;;;;;5026658;28;20025;-66
2023/10/17 03:33:50;;;;;;;7.85;4.50;;;5.30;99.90;;;;;;5029058;28;20041;-66
2023/10/17 03:42:06;;;;;;;6.47;3.90;;;5.30;99.90;;;;;;5012078;28;20018;-66
2023/10/17 03:44:31;;;;;;;7.85;4.10;;;5.30;99.90;;;;;;5023743;28;20037;-65
2023/10/17 03:47:04;;;;;;;9.23;4.20;;;5.30;99.90;;;;;;5031570;28;20108;-66
2023/10/17 03:49:36;;;;;;;8.27;5.15;;;5.30;99.90;;;;;;5033167;28;20108;-66
2023/10/17 03:52:04;;;;;;;11.07;4.50;;;5.30;99.90;;;;;;5034207;28;20030;-66
2023/10/17 03:54:29;;;;;;;10.25;5.15;;;5.30;99.90;;;;;;5031770;28;20457;-66
2023/10/17 03:57:04;;;;;;;7.70;4.32;;;5.40;99.90;;;;;;5034324;28;20053;-66
2023/10/17 03:59:37;;;;;;;9.68;4.30;;;5.40;99.90;;;;;;5028233;28;20028;-67
2023/10/17 04:02:03;;;;;;;11.25;4.25;;;5.40;99.90;;;;;;5007984;28;20045;-66
2023/10/17 04:04:46;;;;;;;7.22;3.88;;;5.40;99.90;;;;;;5033219;28;20455;-66
2023/10/17 04:07:12;;;;;;;9.27;3.80;;;5.40;99.90;;;;;;5032663;28;20033;-66
2023/10/17 04:10:46;;;;;;;11.93;4.68;;;5.40;99.90;;;;;;5032207;28;20030;-65
2023/10/17 04:12:39;;;;;;;9.35;4.55;;;5.30;99.90;;;;;;5039112;28;20041;-66
2023/10/17 04:15:09;;;;;;;7.93;3.88;;;5.30;99.90;;;;;;5032332;28;20479;-66
2023/10/17 04:17:36;;;;;;;11.05;4.47;;;5.30;99.90;;;;;;5027477;28;20544;-66
2023/10/17 04:20:11;;;;;;;16.77;5.25;;;5.40;99.90;;;;;;5031563;28;20009;-66
2023/10/17 04:22:43;;;;;;;8.10;5.43;;;5.30;99.90;;;;;;4995320;28;20041;-66
2023/10/17 04:25:34;;;;;;;10.40;3.95;;;5.40;99.90;;;;;;5033577;28;20037;-66
2023/10/17 04:27:59;;;;;;;10.05;4.68;;;5.40;99.90;;;;;;5028049;28;20465;-66
2023/10/17 04:30:47;;;;;;;9.60;4.72;;;5.40;99.90;;;;;;5033883;28;20057;-67
2023/10/17 04:33:13;;;;;;;9.60;4.70;;;5.30;99.90;;;;;;5030697;28;20025;-66
2023/10/17 04:35:44;;;;;;;7.15;4.00;;;5.30;99.90;;;;;;5030793;28;20040;-66
2023/10/17 04:38:16;;;;;;;9.77;4.70;;;5.30;99.90;;;;;;5033930;28;20509;-66
2023/10/17 04:40:50;;;;;;;9.13;4.60;;;5.30;99.90;;;;;;5029573;28;20037;-66
2023/10/17 04:46:01;;;;;;;6.55;4.25;;;5.20;99.90;;;;;;5029948;28;20048;-66
2023/10/17 04:48:35;;;;;;;11.13;5.20;;;5.20;99.90;;;;;;5032783;28;20021;-66
2023/10/17 04:51:38;;;;;;;8.00;4.45;;;5.20;99.90;;;;;;5027680;28;20021;-66
2023/10/17 04:53:55;;;;;;;8.52;4.07;;;5.20;99.90;;;;;;5029833;28;20041;-66
2023/10/17 04:56:23;;;;;;;7.25;3.92;;;5.20;99.90;;;;;;5030285;28;20386;-66
2023/10/17 04:58:53;;;;;;;7.20;4.32;;;5.20;99.90;;;;;;5031281;28;20581;-66
2023/10/17 06:17:42;;;;;;;6.78;3.95;;;5.60;99.90;;;;;;5027742;28;20041;-66
2023/10/17 06:20:16;;;;;;;6.93;3.78;;;5.60;99.90;;;;;;5026875;28;20024;-68
2023/10/17 06:28:25;;;;;;;5.40;3.40;;;5.90;99.90;;;;;;5030727;28;20072;-66
2023/10/17 06:33:35;;;;;;;6.20;3.78;;;6.00;99.90;;;;;;5010827;28;20036;-67
2023/10/17 06:36:13;;;;;;;6.78;3.28;;;6.10;99.90;;;;;;5028614;28;20410;-66
2023/10/17 06:38:46;;;;;;;8.90;3.85;;;6.10;99.90;;;;;;5024511;28;20025;-66
2023/10/17 06:41:14;;;;;;;6.70;3.75;;;6.10;99.90;;;;;;5017185;28;20121;-66
2023/10/17 06:43:46;;;;;;;7.20;3.30;;;6.20;99.90;;;;;;5027356;28;20025;-66
2023/10/17 06:46:14;;;;;;;6.10;3.28;;;6.20;99.90;;;;;;5027982;28;20057;-66
2023/10/17 06:48:49;;;;;;;9.32;4.05;;;6.20;99.90;;;;;;5031350;28;20018;-66
2023/10/17 06:53:47;;;;;;;5.80;2.97;;;6.40;99.90;;;;;;5031620;28;20018;-66
2023/10/17 06:56:18;;;;;;;5.88;3.28;;;6.40;99.90;;;;;;5018878;28;20017;-66
2023/10/17 06:58:44;;;;;;;7.57;3.88;;;6.50;99.90;;;;;;5035015;28;20032;-66
2023/10/17 07:01:24;;;;;;;6.38;2.92;;;6.50;99.90;;;;;;5029139;28;20022;-66
2023/10/17 07:03:54;;;;;;;5.93;3.40;;;6.60;99.90;;;;;;5022802;28;20026;-66
2023/10/17 07:06:24;;;;;;;5.63;3.08;;;6.60;99.90;;;;;;5031531;28;20053;-66
2023/10/17 07:08:50;;;;;;;6.50;3.00;;;6.60;99.90;;;;;;5027821;28;20022;-65
2023/10/17 07:16:34;;;;;;;6.80;3.58;;;6.70;99.90;;;;;;5026568;28;20100;-66
2023/10/17 07:22:06;;;;;;;9.90;3.53;;;6.80;99.90;;;;;;5034974;28;20430;-66
2023/10/17 07:24:36;;;;;;;7.22;3.20;;;6.70;99.90;;;;;;5028867;28;20041;-66
2023/10/17 07:27:11;;;;;;;7.63;3.08;;;6.80;99.90;;;;;;5025016;28;20053;-66
2023/10/17 07:29:38;;;;;;;3.97;2.70;;;6.80;99.90;;;;;;5031606;28;20021;-65
2023/10/17 07:32:09;;;;;;;6.07;2.60;;;6.90;99.90;;;;;;5040200;28;20026;-67
2023/10/17 07:34:36;;;;;;;6.55;3.65;;;7.00;99.90;;;;;;5035616;28;20445;-66
2023/10/17 07:37:14;;;;;;;8.20;3.95;;;7.00;99.90;;;;;;5034025;28;20022;-65
2023/10/17 07:39:39;;;;;;;12.10;5.28;;;7.10;99.90;;;;;;5008945;27;20054;-66
2023/10/17 07:42:14;;;;;;;11.52;5.63;;;7.10;99.90;;;;;;5012758;28;20482;-66
2023/10/17 07:44:43;;;;;;;10.15;3.83;;;7.20;99.90;;;;;;5012002;28;20097;-66
2023/10/17 07:47:09;;;;;;;7.32;3.42;;;7.30;99.90;;;;;;5013978;28;20029;-66
2023/10/17 07:49:43;;;;;;;5.53;3.25;;;7.30;99.90;;;;;;5013300;28;20037;-66
2023/10/17 07:52:12;;;;;;;4.45;3.15;;;7.30;99.90;;;;;;5012199;28;20033;-66
2023/10/17 07:54:45;;;;;;;7.57;3.90;;;7.50;99.90;;;;;;5015435;28;20116;-66
2023/10/17 07:57:23;;;;;;;6.78;4.13;;;7.60;99.90;;;;;;5015307;28;20476;-66
2023/10/17 07:59:52;;;;;;;6.38;3.03;;;7.60;99.90;;;;;;5014718;28;20037;-66
2023/10/17 08:02:23;;;;;;;7.63;3.60;;;7.80;99.90;;;;;;5010866;28;20045;-65
2023/10/17 08:04:49;;;;;;;5.25;2.60;;;7.90;99.90;;;;;;5013427;28;20430;-65
2023/10/17 08:07:16;;;;;;;7.07;2.30;;;7.90;99.90;;;;;;5010414;28;20032;-65
2023/10/17 08:09:50;;;;;;;4.60;2.22;;;8.00;99.90;;;;;;5012617;28;20037;-66
2023/10/17 08:12:21;;;;;;;7.50;2.42;;;8.10;99.90;;;;;;5007420;28;20025;-66
2023/10/17 08:14:52;;;;;;;3.60;2.30;;;8.10;99.90;;;;;;5014036;28;20112;-65
2023/10/17 08:17:19;;;;;;;7.05;2.08;;;8.10;99.90;;;;;;5011596;28;20025;-66
2023/10/17 08:20:00;;;;;;;4.35;2.20;;;8.30;99.90;;;;;;5011724;28;20105;-65
2023/10/17 08:22:27;;;;;;;4.53;2.10;;;8.40;99.90;;;;;;5015577;28;20025;-67
2023/10/17 08:24:53;;;;;;;6.97;1.60;;;8.50;99.90;;;;;;5005816;28;20576;-66
2023/10/17 08:29:49;;;;;;;4.10;2.13;;;8.70;99.90;;;;;;5010679;28;20034;-66
2023/10/17 08:34:59;;;;;;;7.00;2.08;;;9.00;99.90;;;;;;5009835;28;20061;-67
2023/10/17 08:37:40;;;;;;;3.05;1.88;;;9.10;99.90;;;;;;5006886;28;20494;-66
2023/10/17 08:40:29;;;;;;;5.97;2.22;;;9.20;99.90;;;;;;4987107;28;20049;-68
2023/10/17 08:42:52;;;;;;;3.83;1.63;;;9.30;99.90;;;;;;5013607;28;20060;-66
2023/10/17 08:45:19;;;;;;;3.40;1.90;;;9.50;99.90;;;;;;4997347;28;20487;-66
2023/10/17 08:47:46;;;;;;;4.03;1.80;;;9.50;99.90;;;;;;5029830;28;20479;-66
2023/10/17 08:50:15;;;;;;;3.90;1.92;;;9.60;99.90;;;;;;5037060;28;20032;-66
2023/10/17 08:52:44;;;;;;;2.45;1.67;;;9.80;99.90;;;;;;5038808;28;20025;-66
2023/10/17 08:55:15;;;;;;;4.57;1.98;;;9.90;99.90;;;;;;5031156;28;20034;-66
2023/10/17 08:57:41;;;;;;;3.60;2.08;;;9.90;99.90;;;;;;5030393;28;20112;-66
2023/10/17 09:02:40;;;;;;;5.97;1.70;;;10.10;99.90;;;;;;5021693;28;20033;-66
2023/10/17 09:05:25;;;;;;;7.07;1.85;;;10.20;99.90;;;;;;5032607;28;20044;-65
2023/10/17 09:07:55;;;;;;;5.28;1.83;;;10.30;99.90;;;;;;5031848;28;20029;-66
2023/10/17 09:10:36;;;;;;;2.38;1.63;;;10.20;99.90;;;;;;5030958;28;20037;-66
2023/10/17 09:16:09;;;;;;;2.53;1.63;;;10.30;99.90;;;;;;5015786;28;20129;-66
2023/10/17 09:18:42;;;;;;;2.58;1.33;;;10.50;99.90;;;;;;5033969;28;20025;-65
2023/10/17 09:21:08;;;;;;;2.83;1.88;;;10.50;99.90;;;;;;5021463;28;20037;-65
2023/10/17 09:23:38;;;;;;;2.38;1.60;;;10.60;99.90;;;;;;5029267;28;20513;-66
2023/10/17 09:26:07;;;;;;;4.35;2.20;;;10.60;99.90;;;;;;5023549;28;20025;-66
2023/10/17 09:28:42;;;;;;;3.05;1.45;;;10.50;99.90;;;;;;5027078;28;20029;-66
2023/10/17 09:31:09;;;;;;;4.45;2.40;;;10.50;99.90;;;;;;5016202;28;20045;-66
2023/10/17 09:33:43;;;;;;;6.97;2.38;;;10.60;99.90;;;;;;5026205;28;20034;-66
2023/10/17 09:36:09;;;;;;;2.63;1.25;;;10.70;99.90;;;;;;5036726;28;20030;-66
2023/10/17 09:38:41;;;;;;;2.65;1.45;;;10.60;99.90;;;;;;5022357;28;20054;-65
2023/10/17 09:41:08;;;;;;;2.80;1.67;;;10.70;99.90;;;;;;4994465;28;20369;-66
2023/10/17 09:43:36;;;;;;;3.80;2.20;;;10.70;99.90;;;;;;5052649;28;20033;-66
2023/10/17 09:46:03;;;;;;;3.35;1.73;;;10.70;99.90;;;;;;5018677;28;20757;-66
2023/10/17 09:48:36;;;;;;;1.13;1.02;;;10.70;99.90;;;;;;5024221;28;20044;-66
2023/10/17 09:51:03;;;;;;;1.42;0.93;;;10.60;99.90;;;;;;5028880;28;20033;-65
2023/10/17 09:53:36;;;;;;;2.78;0.90;;;10.30;99.90;;;;;;5022201;28;20108;-66
2023/10/17 09:56:07;;;;;;;1.92;1.10;;;10.40;99.90;;;;;;5020056;28;20049;-66
2023/10/17 09:58:37;;;;;;;3.58;1.20;;;10.50;99.90;;;;;;5021620;28;20030;-66
2023/10/17 10:01:24;;;;;;;2.58;1.25;;;10.50;99.90;;;;;;5018904;28;20022;-66
2023/10/17 10:03:57;;;;;;;6.93;1.40;;;10.70;99.90;;;;;;5020667;28;20022;-66
2023/10/17 10:06:27;;;;;;;4.00;1.40;;;10.70;99.90;;;;;;5021094;28;20546;-66
2023/10/17 10:08:56;;;;;;;4.47;1.23;;;10.70;99.90;;;;;;5028744;28;20045;-67
2023/10/17 10:11:50;;;;;;;4.45;1.50;;;10.40;99.90;;;;;;5015868;28;20025;-66
2023/10/17 10:14:40;;;;;;;5.32;1.45;;;10.40;99.90;;;;;;5023921;28;20021;-66
2023/10/17 10:17:08;;;;;;;2.60;1.13;;;10.30;99.90;;;;;;5030622;28;20091;-66
2023/10/17 10:19:46;;;;;;;3.60;1.15;;;10.00;99.90;;;;;;5031958;28;20025;-66
2023/10/17 10:22:13;;;;;;;3.05;1.48;;;9.90;99.90;;;;;;5024102;28;20033;-67
2023/10/17 10:24:40;;;;;;;3.75;1.10;;;9.90;99.90;;;;;;5025845;28;20545;-66
2023/10/17 10:27:15;;;;;;;3.47;1.40;;;9.80;99.90;;;;;;5026527;28;20025;-66
2023/10/17 10:29:47;;;;;;;2.67;1.65;;;9.90;99.90;;;;;;5031498;28;20075;-66
2023/10/17 10:32:25;;;;;;;1.95;1.27;;;10.10;99.90;;;;;;5033046;28;20052;-66
2023/10/17 10:34:51;;;;;;;2.42;1.30;;;10.40;99.90;;;;;;5032123;28;20030;-66
2023/10/17 10:37:17;;;;;;;1.15;1.05;;;10.60;99.90;;;;;;5035028;28;20044;-66
2023/10/17 10:40:14;;;;;;;3.60;1.42;;;10.70;99.90;;;;;;5011149;28;20033;-66
2023/10/17 10:42:47;;;;;;;2.47;1.83;;;10.80;99.90;;;;;;5006047;28;20049;-66
2023/10/17 10:45:46;;;;;;;1.75;1.33;;;10.90;99.90;;;;;;5005635;28;20062;-66
2023/10/17 10:48:17;;;;;;;2.70;1.58;;;11.00;99.90;;;;;;5002024;28;20057;-66
2023/10/17 10:50:48;;;;;;;7.80;1.38;;;11.10;99.90;;;;;;5006390;28;20073;-66
2023/10/17 10:53:22;;;;;;;3.33;1.63;;;11.10;99.90;;;;;;5008394;28;20033;-67
2023/10/17 10:56:11;;;;;;;3.22;1.38;;;11.10;99.90;;;;;;5008855;28;20029;-68
2023/10/17 10:58:47;;;;;;;5.88;1.33;;;11.00;99.90;;;;;;5014885;28;20026;-66
2023/10/17 11:01:14;;;;;;;3.55;1.38;;;11.00;99.90;;;;;;5007983;28;20075;-66
2023/10/17 11:03:46;;;;;;;1.83;1.40;;;11.10;99.90;;;;;;5010753;28;20507;-66
2023/10/17 11:06:13;;;;;;;5.13;1.23;;;11.10;99.90;;;;;;5010307;28;20411;-66
2023/10/17 11:08:46;;;;;;;4.30;1.20;;;11.10;99.90;;;;;;5011597;28;20415;-66
2023/10/17 11:11:19;;;;;;;5.13;1.33;;;11.20;99.90;;;;;;5006530;28;20030;-66
2023/10/17 11:13:47;;;;;;;5.10;1.23;;;11.20;99.90;;;;;;5014569;28;20037;-66
2023/10/17 11:16:19;;;;;;;2.90;1.23;;;11.20;99.90;;;;;;5015484;28;20030;-66
2023/10/17 11:18:45;;;;;;;2.33;1.27;;;11.20;99.90;;;;;;5015405;28;20400;-66
2023/10/17 11:21:12;;;;;;;4.40;2.20;;;11.20;99.90;;;;;;5013556;28;20026;-66
2023/10/17 11:23:41;;;;;;;6.65;1.58;;;11.30;99.90;;;;;;5015402;28;20034;-66
2023/10/17 11:26:11;;;;;;;2.88;1.00;;;11.30;99.90;;;;;;5011912;28;20025;-66
2023/10/17 11:28:42;;;;;;;3.35;1.67;;;11.30;99.90;;;;;;5014732;28;20033;-66
2023/10/17 11:31:21;;;;;;;3.88;1.55;;;11.30;99.90;;;;;;5015735;28;20565;-66
2023/10/17 11:33:59;;;;;;;2.67;1.73;;;11.30;99.90;;;;;;5014679;28;20034;-66
2023/10/17 11:36:35;;;;;;;1.45;1.13;;;11.40;99.90;;;;;;5012284;28;20026;-66
2023/10/17 11:39:04;;;;;;;2.05;1.08;;;11.40;99.90;;;;;;5010184;28;20018;-67
2023/10/17 11:41:39;;;;;;;3.35;1.30;;;11.50;99.90;;;;;;4995734;28;20041;-66
2023/10/17 11:44:06;;;;;;;5.30;1.70;;;11.50;99.90;;;;;;5021284;28;20049;-65
2023/10/17 11:46:38;;;;;;;2.22;1.13;;;11.60;99.90;;;;;;5027336;28;20521;-66
2023/10/17 11:49:29;;;;;;;4.25;1.20;;;11.60;99.90;;;;;;5024969;28;20056;-65
2023/10/17 11:52:04;;;;;;;1.38;1.17;;;11.60;99.90;;;;;;5032180;28;20083;-64
2023/10/17 11:54:30;;;;;;;4.47;1.33;;;11.60;99.90;;;;;;5033224;28;20033;-64
2023/10/17 11:57:12;;;;;;;2.50;1.25;;;11.60;99.90;;;;;;5032075;28;20017;-64
2023/10/17 11:59:38;;;;;;;4.88;1.52;;;11.70;99.90;;;;;;5030535;28;20025;-64
2023/10/17 12:02:03;;;;;;;3.88;1.70;;;11.70;99.90;;;;;;5032236;28;20116;-64
2023/10/17 12:04:29;;;;;;;1.70;1.00;;;11.70;99.90;;;;;;5029765;28;20036;-64
2023/10/17 12:06:55;;;;;;;3.13;1.08;;;11.70;99.90;;;;;;5029247;28;20571;-65
2023/10/17 12:09:23;;;;;;;2.20;1.23;;;11.70;99.90;;;;;;5027361;28;20076;-65
2023/10/17 12:11:50;;;;;;;7.65;1.70;;;11.80;99.90;;;;;;5024246;28;20026;-64
2023/10/17 12:14:20;;;;;;;1.67;0.95;;;11.80;99.90;;;;;;5028662;28;20099;-65
2023/10/17 12:16:53;;;;;;;2.85;1.10;;;11.80;99.90;;;;;;5027281;28;20087;-65
2023/10/17 12:19:26;;;;;;;1.73;0.90;;;11.80;99.90;;;;;;5029719;28;20030;-63
2023/10/17 12:21:53;;;;;;;4.45;1.45;;;11.80;99.90;;;;;;5030233;28;20026;-64
2023/10/17 12:24:20;;;;;;;4.13;1.10;;;11.70;99.90;;;;;;5033567;28;20053;-65
2023/10/17 12:26:51;;;;;;;3.28;1.00;;;11.80;99.90;;;;;;5031724;28;20037;-67
2023/10/17 12:29:17;;;;;;;2.47;1.17;;;11.70;99.30;;;;;;5032514;28;20025;-65
2023/10/17 12:31:43;;;;;;;2.20;1.10;;;11.70;99.10;;;;;;5027961;28;20031;-64
2023/10/17 12:34:09;;;;;;;1.75;1.13;;;11.70;99.50;;;;;;5031235;28;20032;-65
2023/10/17 12:36:38;;;;;;;1.02;0.70;;;11.70;98.80;;;;;;5033166;28;20021;-65
2023/10/17 12:39:06;;;;;;;0.50;0.50;;;11.70;98.90;;;;;;5021494;28;20033;-64
2023/10/17 12:41:33;;;;;;;4.80;1.15;;;11.70;99.70;;;;;;5026333;28;20025;-64
2023/10/17 12:43:59;;;;;;;4.65;1.10;;;11.70;99.90;;;;;;5029926;28;20029;-65
2023/10/17 12:46:25;;;;;;;3.65;1.35;;;11.70;99.60;;;;;;5021427;28;20026;-65
2023/10/17 12:48:51;;;;;;;1.60;1.10;;;11.80;99.90;;;;;;5032582;28;20025;-65
2023/10/17 12:51:20;;;;;;;2.00;0.80;;;11.80;99.90;;;;;;5033769;28;20527;-67
2023/10/17 12:53:46;;;;;;;1.15;0.80;;;11.80;99.90;;;;;;5031000;28;20037;-64
2023/10/17 12:56:12;;;;;;;1.90;1.10;;;11.80;99.20;;;;;;5025946;28;20059;-64
2023/10/17 12:58:37;;;;;;;3.20;1.02;;;11.80;99.10;;;;;;5032832;28;20021;-65
2023/10/17 13:01:04;;;;;;;1.63;1.10;;;11.80;99.40;;;;;;5029007;28;20071;-65
2023/10/17 13:03:33;;;;;;;7.28;1.85;;;11.80;99.20;;;;;;5031507;28;20471;-65
2023/10/17 13:06:00;;;;;;;2.80;1.20;;;11.80;99.60;;;;;;5030871;28;20108;-64
2023/10/17 13:08:26;;;;;;;2.13;1.55;;;11.80;98.60;;;;;;5032454;28;20048;-65
2023/10/17 13:10:57;;;;;;;0.52;0.52;;;11.70;98.50;;;;;;5025570;28;20037;-64
2023/10/17 13:13:23;;;;;;;2.67;1.70;;;11.70;98.30;;;;;;5032270;28;20045;-64
2023/10/17 13:15:49;;;;;;;2.33;1.17;;;11.80;98.60;;;;;;5032208;28;20494;-65
2023/10/17 13:18:15;;;;;;;1.25;0.80;;;11.80;98.00;;;;;;5033191;28;20034;-65
2023/10/17 13:20:50;;;;;;;1.20;0.77;;;11.90;96.80;;;;;;5029580;28;20072;-64
2023/10/17 13:23:16;;;;;;;2.50;1.17;;;11.90;96.60;;;;;;5028852;28;20029;-65
2023/10/17 13:25:43;;;;;;;2.95;1.10;;;11.90;96.40;;;;;;5028742;28;20026;-65
2023/10/17 13:28:09;;;;;;;1.10;1.00;;;12.00;96.50;;;;;;5030312;28;20025;-65
2023/10/17 13:30:35;;;;;;;2.67;1.00;;;12.00;97.40;;;;;;5032995;28;20475;-65
2023/10/17 13:33:04;;;;;;;1.60;0.77;;;12.00;97.00;;;;;;5026454;28;20056;-66
2023/10/17 13:35:30;;;;;;;2.25;1.35;;;12.00;97.60;;;;;;5031080;28;20025;-65
2023/10/17 13:37:58;;;;;;;2.35;1.23;;;12.10;97.10;;;;;;5030316;28;20024;-65
2023/10/17 13:40:25;;;;;;;2.83;1.23;;;12.00;96.70;;;;;;5024962;28;20022;-64
2023/10/17 13:42:52;;;;;;;4.20;1.13;;;12.00;97.30;;;;;;5019863;28;20486;-65
2023/10/17 13:45:22;;;;;;;1.17;1.08;;;12.00;97.60;;;;;;5025179;28;20022;-65
2023/10/17 13:47:54;;;;;;;1.67;1.17;;;12.00;97.20;;;;;;5032154;28;20022;-65
2023/10/17 13:50:21;;;;;;;2.15;1.40;;;11.90;96.90;;;;;;5030538;28;20022;-65
2023/10/17 13:52:48;;;;;;;2.97;1.00;;;11.90;96.80;;;;;;5031576;28;20191;-65
2023/10/17 13:55:46;;;;;;;9.35;1.23;;;11.90;97.20;;;;;;5032599;28;20529;-65
2023/10/17 13:58:05;;;;;;;2.78;1.13;;;11.90;97.80;;;;;;5026899;28;20662;-64
2023/10/17 14:00:44;;;;;;;1.52;0.90;;;11.90;98.50;;;;;;5029265;28;20033;-65
2023/10/17 14:03:13;;;;;;;3.38;1.00;;;11.90;98.70;;;;;;5026645;28;20080;-65
2023/10/17 14:05:44;;;;;;;2.42;1.10;;;11.90;99.90;;;;;;5031084;28;20025;-65
2023/10/17 14:08:13;;;;;;;2.58;1.23;;;11.90;99.90;;;;;;5032520;28;20364;-64
2023/10/17 14:10:43;;;;;;;3.88;1.15;;;11.90;99.40;;;;;;5026253;28;20117;-65
2023/10/17 14:13:12;;;;;;;3.10;1.15;;;11.90;98.50;;;;;;5030726;28;20021;-65
2023/10/17 14:15:38;;;;;;;2.25;1.08;;;11.80;99.00;;;;;;5030566;28;20021;-65
2023/10/17 14:18:13;;;;;;;1.70;1.02;;;11.90;99.90;;;;;;5029664;28;20025;-64
2023/10/17 14:20:53;;;;;;;2.63;1.13;;;11.90;99.30;;;;;;5024925;28;20025;-64
2023/10/17 14:23:26;;;;;;;4.07;1.10;;;11.80;99.90;;;;;;5029061;28;20021;-65
2023/10/17 14:26:03;;;;;;;3.40;1.10;;;11.90;99.80;;;;;;5031553;28;20826;-64
2023/10/17 14:28:32;;;;;;;3.83;1.13;;;11.80;99.50;;;;;;5031545;28;20029;-65
2023/10/17 14:31:01;;;;;;;1.58;1.02;;;11.80;99.90;;;;;;5025133;28;20029;-65
2023/10/17 14:33:27;;;;;;;4.97;1.10;;;11.80;99.90;;;;;;5028506;28;20429;-64
2023/10/17 14:35:53;;;;;;;2.70;1.08;;;11.70;99.90;;;;;;5020317;28;20044;-68
2023/10/17 14:38:18;;;;;;;2.47;1.23;;;11.70;99.20;;;;;;5027418;28;20072;-65
2023/10/17 14:40:44;;;;;;;1.30;1.20;;;11.70;99.00;;;;;;5027570;28;20030;-65
2023/10/17 14:43:12;;;;;;;2.45;1.17;;;11.70;98.40;;;;;;5022345;28;20026;-66
2023/10/17 14:45:39;;;;;;;2.25;1.08;;;11.60;99.20;;;;;;5026095;28;20419;-65
2023/10/17 14:48:05;;;;;;;3.95;1.00;;;11.60;99.00;;;;;;5030249;28;20108;-66
2023/10/17 14:50:33;;;;;;;1.52;1.02;;;11.60;99.00;;;;;;5030534;28;20514;-64
2023/10/17 14:52:59;;;;;;;1.13;0.90;;;11.50;98.80;;;;;;5024029;28;20401;-64
2023/10/17 14:55:26;;;;;;;4.25;1.13;;;11.50;98.30;;;;;;5026643;28;20078;-65
2023/10/17 14:57:53;;;;;;;2.20;1.40;;;11.50;97.00;;;;;;5025101;28;20026;-64
2023/10/17 15:00:20;;;;;;;5.40;1.27;;;11.50;98.70;;;;;;5021466;28;20061;-65
2023/10/17 15:02:47;;;;;;;1.55;1.00;;;11.50;98.40;;;;;;5026546;28;20487;-65
2023/10/17 15:05:14;;;;;;;2.50;1.00;;;11.40;97.30;;;;;;5024669;28;20061;-65
2023/10/17 15:07:44;;;;;;;1.40;1.00;;;11.40;96.50;;;;;;5026120;28;20060;-66
2023/10/17 15:10:14;;;;;;;5.00;0.82;;;11.40;96.20;;;;;;5023954;28;20022;-65
2023/10/17 15:12:45;;;;;;;1.48;1.13;;;11.40;96.60;;;;;;5024741;28;20022;-65
2023/10/17 15:15:11;;;;;;;2.35;1.00;;;11.30;96.60;;;;;;5022052;28;20032;-65